首页
METAR-TAF:

METAR-TAF

机场 :

維也納國際機場

維也納, 奥地利

纬度: 48-07N, 经度: 016-34E, 海拔: 183米

当前天气观测

该预报发布于29分钟前的15:50 UTC
风速2节,风向东南
温度 0°C
湿度 93%
气压 1005 hPa
能見度: 3400
散云层高于300英尺
多云层高于700英尺
阴天层高于1000英尺
小雪, 轻雾

METAR: LOWW 121550Z 13002KT 3400 -SN BR SCT003 BKN007 OVC010 00/M01 Q1005 R11/99 R16/19//95 TEMPO 2000 FEW002 OVC004

时间: 17:19 (16:19 UTC)

预报

该预报发布于2小时和4分钟前的14:15 UTC
预报有效从12日的 15点(UTC)到 13日的 21点(UTC)
风速2节,风向多变
能見度: 5000
散云层高于1000英尺
多云层高于1500英尺
轻雾
短暂存在
从 12日的 15点(UTC)到 12日的 22点(UTC)
能見度: 2500
多云层高于300英尺
阴天层高于500英尺
小雪, 轻雾
成为
从 12日的 22点(UTC)到 13日的 01点(UTC)
风速6节,风向南转南东
能見度: 1400
少量云层高于100英尺
多云层高于200英尺
从 13日的 0500点(UTC)
风速15节,风向南转南东
能見度: 4000
多云层高于600英尺
轻雾
成为
从 13日的 07点(UTC)到 13日的 09点(UTC)
风速20节,风向南转南东,有时为33节阵风
能见度10公里或以上
少量云层高于1000英尺
多云层高于1500英尺
成为
从 13日的 13点(UTC)到 13日的 15点(UTC)
风速12节,风向
能见度10公里或以上
1500米以下无云,无积雨云
从 13日的 1800点(UTC)
风速2节,风向多变
能見度: 7000
多云层高于5000英尺

TAF: LOWW 121415Z 1215/1321 VRB02KT 5000 BR SCT010 BKN015 TX02/1314Z TNM00/1217Z TEMPO 1215/1222 2500 -SN BR BKN003 OVC005 BECMG 1222/1301 15006KT 1400 FEW001 BKN002 FM130500 15015KT 4000 BR BKN006 BECMG 1307/1309 16020G33KT 9999 NSW FEW010 BKN015 BECMG 1313/1315 17012KT CAVOK FM131800 VRB02KT 7000 BKN050

超过4000个机场的气象观测和天气预报(METAR&TAF报告)。

可查询的气象台以黄色和红色小点在地图上表示。

将鼠标移到小点上方,可查看气象台名称。

然后点击查看天气观测和预报。

如需切换地图:点击带黑十字的绿色按钮放大地图;点击带横线的绿色按钮缩小地图;或者点击绿色箭头查看邻近地区的地图。


METAR-TAF: